createdAt,value
2024-02-12T00:00:32.740Z,10.83
2024-02-12T00:03:22.055Z,10.78
2024-02-12T00:06:09.311Z,10.84
2024-02-12T00:08:57.242Z,10.81
2024-02-12T00:11:44.679Z,10.87
2024-02-12T00:14:31.967Z,10.91
2024-02-12T00:17:19.165Z,10.90
2024-02-12T00:20:08.434Z,10.93
2024-02-12T00:22:56.595Z,10.98
2024-02-12T00:25:43.744Z,10.93
2024-02-12T00:28:30.931Z,10.99
2024-02-12T00:31:18.820Z,11.03
2024-02-12T00:34:06.062Z,11.00
2024-02-12T00:36:54.084Z,11.06
2024-02-12T00:39:41.288Z,11.08
2024-02-12T00:42:29.316Z,11.09
2024-02-12T00:45:17.344Z,11.04
2024-02-12T00:48:05.536Z,10.99
2024-02-12T00:50:53.164Z,10.88
2024-02-12T00:53:41.626Z,10.89
2024-02-12T00:56:29.105Z,10.95
2024-02-12T00:59:16.677Z,11.02
2024-02-12T01:02:05.422Z,11.02
2024-02-12T01:04:53.387Z,11.07
2024-02-12T01:07:42.291Z,11.09
2024-02-12T01:10:29.486Z,11.14
2024-02-12T01:13:16.689Z,11.14
2024-02-12T01:16:04.140Z,11.14
2024-02-12T01:18:53.068Z,11.07
2024-02-12T01:21:40.894Z,11.10
2024-02-12T01:24:28.029Z,11.08
2024-02-12T01:27:15.518Z,11.11
2024-02-12T01:30:04.636Z,11.11
2024-02-12T01:32:51.863Z,11.03
2024-02-12T01:35:39.592Z,10.98
2024-02-12T01:38:27.987Z,10.92
2024-02-12T01:41:18.427Z,10.91
2024-02-12T01:44:05.945Z,10.89
2024-02-12T01:46:54.824Z,10.86
2024-02-12T01:49:43.389Z,10.86
2024-02-12T01:52:32.353Z,10.89
2024-02-12T01:55:22.205Z,10.88
2024-02-12T01:58:10.933Z,10.88
2024-02-12T02:00:59.208Z,10.86
2024-02-12T02:03:48.154Z,10.79
2024-02-12T02:06:35.465Z,10.78
2024-02-12T02:09:22.681Z,10.75
2024-02-12T02:12:10.413Z,10.71
2024-02-12T02:14:58.363Z,10.59
2024-02-12T02:17:45.667Z,10.47
2024-02-12T02:20:33.373Z,10.45
2024-02-12T02:23:20.659Z,10.49
2024-02-12T02:26:07.977Z,10.48
2024-02-12T02:28:57.532Z,10.55
2024-02-12T02:31:44.810Z,10.59
2024-02-12T02:34:32.039Z,10.63
2024-02-12T02:37:19.864Z,10.64
2024-02-12T02:40:09.967Z,10.67
2024-02-12T02:42:58.020Z,10.62
2024-02-12T02:45:45.133Z,10.58
2024-02-12T02:48:34.347Z,10.51
2024-02-12T02:51:28.164Z,10.49
2024-02-12T02:54:15.755Z,10.46
2024-02-12T02:57:03.039Z,10.47
2024-02-12T02:59:50.170Z,10.43
2024-02-12T03:02:37.317Z,10.33
2024-02-12T03:05:26.049Z,10.30
2024-02-12T03:08:13.340Z,10.31
2024-02-12T03:11:02.717Z,10.29
2024-02-12T03:13:53.161Z,10.27
2024-02-12T03:16:40.387Z,10.21
2024-02-12T03:19:27.620Z,10.14
2024-02-12T03:22:15.338Z,10.12
2024-02-12T03:25:02.878Z,10.08
2024-02-12T03:27:50.061Z,9.98
2024-02-12T03:30:37.326Z,9.96
2024-02-12T03:33:24.424Z,9.96
2024-02-12T03:36:12.038Z,9.94
2024-02-12T03:39:01.949Z,9.93
2024-02-12T03:41:49.195Z,9.88
2024-02-12T03:44:36.730Z,9.76
2024-02-12T03:47:39.226Z,9.71
2024-02-12T03:50:45.678Z,9.73
2024-02-12T03:53:51.517Z,9.71
2024-02-12T03:56:57.958Z,9.74
2024-02-12T03:59:54.941Z,9.77
2024-02-12T04:02:42.248Z,9.84
2024-02-12T04:05:29.747Z,9.86
2024-02-12T04:08:17.895Z,9.89
2024-02-12T04:11:06.291Z,9.99
2024-02-12T04:13:55.805Z,10.12
2024-02-12T04:16:52.644Z,10.18
2024-02-12T04:19:40.088Z,10.16
2024-02-12T04:22:27.823Z,10.03
2024-02-12T04:25:15.310Z,10.03
2024-02-12T04:28:04.829Z,10.03
2024-02-12T04:30:52.248Z,9.94
2024-02-12T04:33:40.526Z,9.92
2024-02-12T04:36:27.792Z,9.94
2024-02-12T04:39:18.450Z,9.92
2024-02-12T04:42:06.554Z,9.88
2024-02-12T04:44:53.696Z,9.83
2024-02-12T04:47:41.106Z,9.81
2024-02-12T04:50:28.486Z,9.85
2024-02-12T04:53:16.221Z,9.86
2024-02-12T04:56:05.916Z,9.88
2024-02-12T04:58:55.203Z,9.93
2024-02-12T05:01:42.786Z,9.98
2024-02-12T05:04:30.693Z,9.97
2024-02-12T05:07:18.100Z,10.01
2024-02-12T05:10:06.113Z,10.05
2024-02-12T05:12:53.261Z,10.09
2024-02-12T05:15:40.843Z,9.99
2024-02-12T05:18:46.575Z,10.03
2024-02-12T05:21:52.405Z,10.04
2024-02-12T05:24:40.202Z,10.11
2024-02-12T05:27:29.029Z,10.14
2024-02-12T05:30:16.370Z,10.16
2024-02-12T05:33:03.843Z,10.20
2024-02-12T05:35:51.095Z,10.17
2024-02-12T05:38:40.639Z,10.15
2024-02-12T05:41:27.925Z,10.13
2024-02-12T05:44:17.054Z,10.04
2024-02-12T05:47:07.228Z,10.00
2024-02-12T05:49:56.156Z,9.99
2024-02-12T05:52:43.489Z,9.92
2024-02-12T05:55:30.803Z,9.93
2024-02-12T05:58:17.922Z,9.90
2024-02-12T06:01:05.225Z,9.95
2024-02-12T06:03:52.629Z,9.96
2024-02-12T06:06:41.274Z,9.95
2024-02-12T06:09:29.492Z,9.91
2024-02-12T06:12:16.655Z,9.93
2024-02-12T06:15:04.078Z,9.94
2024-02-12T06:17:51.529Z,9.93
2024-02-12T06:20:39.074Z,9.90
2024-02-12T06:23:26.546Z,9.96
2024-02-12T06:26:22.064Z,9.97
2024-02-12T06:29:11.982Z,10.01
2024-02-12T06:31:59.212Z,9.95
2024-02-12T06:34:49.102Z,10.03
2024-02-12T06:37:38.759Z,10.09
2024-02-12T06:40:25.901Z,10.13
2024-02-12T06:43:13.140Z,10.13
2024-02-12T06:46:00.302Z,10.16
2024-02-12T06:48:50.977Z,10.15
2024-02-12T06:51:42.098Z,10.17
2024-02-12T06:54:30.315Z,10.22
2024-02-12T06:57:18.507Z,10.25
2024-02-12T07:00:06.644Z,10.24
2024-02-12T07:02:55.466Z,10.18
2024-02-12T07:05:43.025Z,10.13
2024-02-12T07:08:30.292Z,10.17
2024-02-12T07:11:17.854Z,10.19
2024-02-12T07:14:05.201Z,10.20
2024-02-12T07:16:52.365Z,10.20
2024-02-12T07:19:53.032Z,10.24
2024-02-12T07:22:40.235Z,10.26
2024-02-12T07:25:27.425Z,10.28
2024-02-12T07:28:14.707Z,10.34
2024-02-12T07:31:02.025Z,10.30
2024-02-12T07:33:49.504Z,10.28
2024-02-12T07:36:45.883Z,10.27
2024-02-12T07:39:33.328Z,10.32
2024-02-12T07:42:20.511Z,10.36
2024-02-12T07:45:08.787Z,10.37
2024-02-12T07:47:57.519Z,10.33
2024-02-12T07:50:45.152Z,10.36
2024-02-12T07:53:32.463Z,10.35
2024-02-12T07:56:20.382Z,10.38
2024-02-12T07:59:07.738Z,10.32
2024-02-12T08:01:55.899Z,10.34
2024-02-12T08:04:45.613Z,10.30
2024-02-12T08:07:41.828Z,10.34
2024-02-12T08:10:39.426Z,10.38
2024-02-12T08:13:26.606Z,10.46
2024-02-12T08:16:13.848Z,10.52
2024-02-12T08:19:02.688Z,10.50
2024-02-12T08:21:49.980Z,10.49
2024-02-12T08:24:37.117Z,10.50
2024-02-12T08:27:24.249Z,10.55
2024-02-12T08:30:12.465Z,10.57
2024-02-12T08:33:00.493Z,10.57
2024-02-12T08:35:47.913Z,10.51
2024-02-12T08:38:35.201Z,10.53
2024-02-12T08:41:26.919Z,10.58
2024-02-12T08:44:14.178Z,10.66
2024-02-12T08:47:01.507Z,10.69
2024-02-12T08:49:48.751Z,10.71
2024-02-12T08:52:35.925Z,10.84
2024-02-12T08:55:24.017Z,10.85
2024-02-12T08:58:12.282Z,10.88
2024-02-12T09:00:59.488Z,10.82
2024-02-12T09:03:47.601Z,10.73
2024-02-12T09:06:36.242Z,10.68
2024-02-12T09:09:23.533Z,10.79
2024-02-12T09:12:11.099Z,10.84
2024-02-12T09:14:58.814Z,10.96
2024-02-12T09:17:46.183Z,10.93
2024-02-12T09:20:33.491Z,10.97
2024-02-12T09:23:22.980Z,10.92
2024-02-12T09:26:10.570Z,10.85
2024-02-12T09:28:59.626Z,10.85
2024-02-12T09:31:46.852Z,10.86
2024-02-12T09:34:34.184Z,10.99
2024-02-12T09:37:21.556Z,11.05
2024-02-12T09:40:10.375Z,11.06
2024-02-12T09:42:58.862Z,11.06
2024-02-12T09:45:46.524Z,11.18
2024-02-12T09:48:34.103Z,11.26
2024-02-12T09:51:24.908Z,11.27
2024-02-12T09:54:13.595Z,11.41
2024-02-12T09:57:03.004Z,11.48
2024-02-12T09:59:52.278Z,11.48
2024-02-12T10:02:41.547Z,11.61
2024-02-12T10:05:32.076Z,11.64
2024-02-12T10:08:31.981Z,11.70
2024-02-12T10:11:25.664Z,11.80
2024-02-12T10:14:14.438Z,11.87
2024-02-12T10:17:02.907Z,11.85
2024-02-12T10:19:50.158Z,12.02
2024-02-12T10:22:40.157Z,12.12
2024-02-12T10:25:27.328Z,12.41
2024-02-12T10:28:19.827Z,12.53
2024-02-12T10:31:07.602Z,12.58
2024-02-12T10:33:59.250Z,12.43
2024-02-12T10:36:49.483Z,12.21
2024-02-12T10:39:38.989Z,12.33
2024-02-12T10:42:41.307Z,12.56
2024-02-12T10:45:29.715Z,12.71
2024-02-12T10:48:18.697Z,12.75
2024-02-12T10:51:06.864Z,12.89
2024-02-12T10:53:54.316Z,12.89
2024-02-12T10:56:41.683Z,13.13
2024-02-12T10:59:28.937Z,13.62
2024-02-12T11:02:16.822Z,13.79
2024-02-12T11:05:05.076Z,13.78
2024-02-12T11:08:12.286Z,13.99
2024-02-12T11:11:01.797Z,14.28
2024-02-12T11:13:53.717Z,14.43
2024-02-12T11:16:41.883Z,14.40
2024-02-12T11:19:30.018Z,14.26
2024-02-12T11:22:27.702Z,13.76
2024-02-12T11:25:23.468Z,13.56
2024-02-12T11:28:16.071Z,13.46
2024-02-12T11:31:05.845Z,13.64
2024-02-12T11:33:53.139Z,13.72
2024-02-12T11:36:41.775Z,13.69
2024-02-12T11:39:30.213Z,13.69
2024-02-12T11:42:21.609Z,13.65
2024-02-12T11:45:08.879Z,13.59
2024-02-12T11:48:09.399Z,13.47
2024-02-12T11:50:56.989Z,13.43
2024-02-12T11:53:57.972Z,13.62
2024-02-12T11:56:45.389Z,13.58
2024-02-12T11:59:32.837Z,13.69
2024-02-12T12:02:20.498Z,13.86
2024-02-12T12:05:11.362Z,13.80
2024-02-12T12:08:02.072Z,13.96
2024-02-12T12:10:49.359Z,14.28
2024-02-12T12:13:36.571Z,14.39
2024-02-12T12:16:24.603Z,14.41
2024-02-12T12:19:11.861Z,14.28
2024-02-12T12:21:59.228Z,14.02
2024-02-12T12:24:46.410Z,13.83
2024-02-12T12:27:35.114Z,13.73
2024-02-12T12:30:23.649Z,13.54
2024-02-12T12:33:11.045Z,13.59
2024-02-12T12:35:58.519Z,13.61
2024-02-12T12:38:45.814Z,13.59
2024-02-12T12:41:34.270Z,13.54
2024-02-12T12:44:23.659Z,13.66
2024-02-12T12:47:12.824Z,13.75
2024-02-12T12:50:00.109Z,13.79
2024-02-12T12:52:47.346Z,13.85
2024-02-12T12:55:34.567Z,14.09
2024-02-12T12:58:22.000Z,14.49
2024-02-12T13:01:10.962Z,14.72
2024-02-12T13:04:00.779Z,14.63
2024-02-12T13:06:51.343Z,14.67
2024-02-12T13:09:39.937Z,14.72
2024-02-12T13:12:27.259Z,14.66
2024-02-12T13:15:15.862Z,14.62
2024-02-12T13:18:03.581Z,14.65
2024-02-12T13:20:52.263Z,14.87
2024-02-12T13:23:40.704Z,14.95
2024-02-12T13:26:27.975Z,15.25
2024-02-12T13:29:24.277Z,15.57
2024-02-12T13:32:12.569Z,16.33
2024-02-12T13:34:59.807Z,16.77
2024-02-12T13:37:47.092Z,16.78
2024-02-12T13:40:34.334Z,16.46
2024-02-12T13:43:22.914Z,16.61
2024-02-12T13:46:13.496Z,16.80
2024-02-12T13:49:01.785Z,16.82
2024-02-12T13:51:49.012Z,17.31
2024-02-12T13:54:40.869Z,17.78
2024-02-12T13:57:29.304Z,17.30
2024-02-12T14:00:43.418Z,16.74
2024-02-12T14:03:28.153Z,16.00
2024-02-12T14:06:17.464Z,15.50
2024-02-12T14:09:08.363Z,15.14
2024-02-12T14:11:55.526Z,14.96
2024-02-12T14:14:43.164Z,15.83
2024-02-12T14:17:30.546Z,16.80
2024-02-12T14:20:20.849Z,17.52
2024-02-12T14:23:11.708Z,17.30
2024-02-12T14:25:59.359Z,17.14
2024-02-12T14:28:46.546Z,17.15
2024-02-12T14:32:34.012Z,17.48
2024-02-12T14:34:46.794Z,17.69
2024-02-12T14:37:36.264Z,17.86
2024-02-12T14:40:25.012Z,17.88
2024-02-12T14:43:15.426Z,17.87
2024-02-12T14:46:03.141Z,17.55
2024-02-12T14:48:50.516Z,17.11
2024-02-12T14:51:37.804Z,16.49
2024-02-12T14:54:24.967Z,16.13
2024-02-12T14:57:13.267Z,15.90
2024-02-12T15:00:00.677Z,15.49
2024-02-12T15:02:50.455Z,15.38
2024-02-12T15:05:38.138Z,15.09
2024-02-12T15:08:25.420Z,14.62
2024-02-12T15:11:13.786Z,14.42
2024-02-12T15:14:01.179Z,14.30
2024-02-12T15:16:52.071Z,14.13
2024-02-12T15:19:39.277Z,13.89
2024-02-12T15:22:26.477Z,13.74
2024-02-12T15:25:13.815Z,13.63
2024-02-12T15:28:03.121Z,13.51
2024-02-12T15:30:51.165Z,13.40
2024-02-12T15:33:40.422Z,13.69
2024-02-12T15:36:28.434Z,13.79
2024-02-12T15:39:15.688Z,13.77
2024-02-12T15:42:07.040Z,13.55
2024-02-12T15:44:55.496Z,13.13
2024-02-12T15:47:46.494Z,12.83
2024-02-12T15:50:33.988Z,12.66
2024-02-12T15:53:22.723Z,12.54
2024-02-12T15:56:16.518Z,12.86
2024-02-12T15:59:03.966Z,13.23
2024-02-12T16:01:57.507Z,13.43
2024-02-12T16:04:45.705Z,13.56
2024-02-12T16:07:32.862Z,13.58
2024-02-12T16:10:20.292Z,13.58
2024-02-12T16:13:09.833Z,13.65
2024-02-12T16:15:59.204Z,13.45
2024-02-12T16:18:48.373Z,13.20
2024-02-12T16:21:35.689Z,12.94
2024-02-12T16:24:23.174Z,12.82
2024-02-12T16:27:10.684Z,12.64
2024-02-12T16:29:58.086Z,12.56
2024-02-12T16:32:46.600Z,12.45
2024-02-12T16:35:34.682Z,12.28
2024-02-12T16:38:22.262Z,12.21
2024-02-12T16:41:09.815Z,12.09
2024-02-12T16:43:57.127Z,12.11
2024-02-12T16:46:45.801Z,11.90
2024-02-12T16:49:33.003Z,11.72
2024-02-12T16:52:20.205Z,11.71
2024-02-12T16:55:08.018Z,11.62
2024-02-12T16:57:55.631Z,11.65
2024-02-12T17:00:43.057Z,11.52
2024-02-12T17:03:30.790Z,11.50
2024-02-12T17:06:20.883Z,11.46
2024-02-12T17:09:12.379Z,11.41
2024-02-12T17:11:59.702Z,11.39
2024-02-12T17:14:47.450Z,11.36
2024-02-12T17:17:34.886Z,11.40
2024-02-12T17:20:22.277Z,11.36
2024-02-12T17:23:11.186Z,11.32
2024-02-12T17:25:58.414Z,11.25
2024-02-12T17:28:45.600Z,11.20
2024-02-12T17:31:32.837Z,11.11
2024-02-12T17:34:20.314Z,11.13
2024-02-12T17:37:09.578Z,11.12
2024-02-12T17:39:56.771Z,11.07
2024-02-12T17:42:43.997Z,11.00
2024-02-12T17:45:31.171Z,10.97
2024-02-12T17:48:18.546Z,10.91
2024-02-12T17:51:06.047Z,10.91
2024-02-12T17:53:53.315Z,10.86
2024-02-12T17:56:40.529Z,10.82
2024-02-12T17:59:27.767Z,10.79
2024-02-12T18:02:18.848Z,10.71
2024-02-12T18:05:07.384Z,10.63
2024-02-12T18:07:54.697Z,10.65
2024-02-12T18:10:41.822Z,10.61
2024-02-12T18:13:29.573Z,10.59
2024-02-12T18:16:16.755Z,10.52
2024-02-12T18:19:04.038Z,10.52
2024-02-12T18:21:52.976Z,10.50
2024-02-12T18:24:40.300Z,10.47
2024-02-12T18:27:27.432Z,10.39
2024-02-12T18:30:16.104Z,10.36
2024-02-12T18:33:04.950Z,10.29
2024-02-12T18:35:53.528Z,10.25
2024-02-12T18:38:41.001Z,10.20
2024-02-12T18:41:30.591Z,10.17
2024-02-12T18:44:18.487Z,10.14
2024-02-12T18:47:05.925Z,10.08
2024-02-12T18:49:54.901Z,10.09
2024-02-12T18:52:42.754Z,10.08
2024-02-12T18:55:31.342Z,9.98
2024-02-12T18:58:18.526Z,10.00
2024-02-12T19:01:06.177Z,9.98
2024-02-12T19:03:57.039Z,9.94
2024-02-12T19:06:46.725Z,9.91
2024-02-12T19:09:34.554Z,9.84
2024-02-12T19:12:21.785Z,9.82
2024-02-12T19:15:10.686Z,9.82
2024-02-12T19:17:58.731Z,9.79
2024-02-12T19:20:47.270Z,9.83
2024-02-12T19:23:34.667Z,9.80
2024-02-12T19:26:22.482Z,9.76
2024-02-12T19:29:13.848Z,9.70
2024-02-12T19:32:02.040Z,9.66
2024-02-12T19:34:49.214Z,9.73
2024-02-12T19:37:39.106Z,9.74
2024-02-12T19:40:33.158Z,9.73
2024-02-12T19:43:20.435Z,9.67
2024-02-12T19:46:07.627Z,9.60
2024-02-12T19:48:55.612Z,9.57
2024-02-12T19:51:42.943Z,9.54
2024-02-12T19:54:30.671Z,9.50
2024-02-12T19:57:17.813Z,9.47
2024-02-12T20:00:07.720Z,9.45
2024-02-12T20:02:57.686Z,9.34
2024-02-12T20:05:45.041Z,9.39
2024-02-12T20:08:32.545Z,9.34
2024-02-12T20:11:20.286Z,9.37
2024-02-12T20:14:07.623Z,9.34
2024-02-12T20:16:56.028Z,9.33
2024-02-12T20:19:43.620Z,9.29
2024-02-12T20:22:30.844Z,9.29
2024-02-12T20:25:18.489Z,9.27
2024-02-12T20:28:07.647Z,9.24
2024-02-12T20:30:56.274Z,9.22
2024-02-12T20:33:43.646Z,9.13
2024-02-12T20:36:30.985Z,9.16
2024-02-12T20:39:18.205Z,9.11
2024-02-12T20:42:08.204Z,9.06
2024-02-12T20:44:55.354Z,9.01
2024-02-12T20:47:42.921Z,9.00
2024-02-12T20:50:31.784Z,8.93
2024-02-12T20:53:19.369Z,8.92
2024-02-12T20:56:07.361Z,8.89
2024-02-12T20:58:54.588Z,8.85
2024-02-12T21:01:43.465Z,8.79
2024-02-12T21:04:31.537Z,8.73
2024-02-12T21:07:18.868Z,8.68
2024-02-12T21:10:06.838Z,8.67
2024-02-12T21:12:54.080Z,8.64
2024-02-12T21:15:41.717Z,8.59
2024-02-12T21:18:28.993Z,8.54
2024-02-12T21:21:16.322Z,8.53
2024-02-12T21:24:04.393Z,8.51
2024-02-12T21:26:51.631Z,8.52
2024-02-12T21:29:42.528Z,8.52
2024-02-12T21:32:30.172Z,8.51
2024-02-12T21:35:21.460Z,8.50
2024-02-12T21:38:09.083Z,8.50
2024-02-12T21:41:16.296Z,8.51
2024-02-12T21:44:04.800Z,8.52
2024-02-12T21:46:52.154Z,8.51
2024-02-12T21:49:39.428Z,8.50
2024-02-12T21:52:27.063Z,8.45
2024-02-12T21:55:15.395Z,8.46
2024-02-12T21:58:02.706Z,8.44
2024-02-12T22:00:49.894Z,8.47
2024-02-12T22:03:38.153Z,8.39
2024-02-12T22:06:25.664Z,8.43
2024-02-12T22:09:12.932Z,8.40
2024-02-12T22:12:01.238Z,8.39
2024-02-12T22:14:49.876Z,8.38
2024-02-12T22:17:42.119Z,8.35
2024-02-12T22:20:30.112Z,8.31
2024-02-12T22:23:17.347Z,8.30
2024-02-12T22:26:05.865Z,8.27
2024-02-12T22:28:53.203Z,8.21
2024-02-12T22:31:44.191Z,8.22
2024-02-12T22:34:31.630Z,8.16
2024-02-12T22:37:19.687Z,8.17
2024-02-12T22:40:09.890Z,8.14
2024-02-12T22:42:57.997Z,8.12
2024-02-12T22:45:46.661Z,8.04
2024-02-12T22:48:34.163Z,8.01
2024-02-12T22:51:21.722Z,8.00
2024-02-12T22:54:12.182Z,8.00
2024-02-12T22:56:59.414Z,7.98
2024-02-12T22:59:46.647Z,7.96
2024-02-12T23:02:35.629Z,7.95
2024-02-12T23:05:22.879Z,7.93
2024-02-12T23:08:12.074Z,7.92
2024-02-12T23:10:59.327Z,7.89
2024-02-12T23:13:46.698Z,7.87
2024-02-12T23:16:33.963Z,7.88
2024-02-12T23:19:24.246Z,7.85
2024-02-12T23:22:14.514Z,7.85
2024-02-12T23:25:01.712Z,7.83
2024-02-12T23:27:49.408Z,7.82
2024-02-12T23:30:36.571Z,7.79
2024-02-12T23:33:23.952Z,7.74
2024-02-12T23:36:12.152Z,7.72
2024-02-12T23:38:59.449Z,7.68
2024-02-12T23:41:47.358Z,7.71
2024-02-12T23:44:34.898Z,7.69
2024-02-12T23:47:22.136Z,7.63
2024-02-12T23:50:13.160Z,7.66
2024-02-12T23:53:00.827Z,7.64
2024-02-12T23:55:48.012Z,7.62
2024-02-12T23:58:35.179Z,7.60
